sensor_id;sensor_type;location;lat;lon;timestamp;temperature;humidity
1123;DHT22;548;48.778;9.252;2022-07-17T06:01:29;23.20;92.80
1123;DHT22;548;48.778;9.252;2022-07-17T06:03:56;23.20;92.30
1123;DHT22;548;48.778;9.252;2022-07-17T06:06:22;23.70;91.20
1123;DHT22;548;48.778;9.252;2022-07-17T06:08:49;24.40;89.00
1123;DHT22;548;48.778;9.252;2022-07-17T06:11:16;24.80;85.40
1123;DHT22;548;48.778;9.252;2022-07-17T06:13:43;24.90;83.80
1123;DHT22;548;48.778;9.252;2022-07-17T06:16:09;25.30;82.00
1123;DHT22;548;48.778;9.252;2022-07-17T06:18:37;25.80;79.90
1123;DHT22;548;48.778;9.252;2022-07-17T06:21:04;26.10;77.70
1123;DHT22;548;48.778;9.252;2022-07-17T06:23:31;26.00;77.40
1123;DHT22;548;48.778;9.252;2022-07-17T06:25:58;26.00;76.90
1123;DHT22;548;48.778;9.252;2022-07-17T06:28:25;26.50;74.80
1123;DHT22;548;48.778;9.252;2022-07-17T06:30:52;25.90;76.10
1123;DHT22;548;48.778;9.252;2022-07-17T06:33:18;26.40;74.40
1123;DHT22;548;48.778;9.252;2022-07-17T06:35:46;26.20;75.50
1123;DHT22;548;48.778;9.252;2022-07-17T06:38:13;26.70;73.90
1123;DHT22;548;48.778;9.252;2022-07-17T06:40:40;27.10;72.70
1123;DHT22;548;48.778;9.252;2022-07-17T06:43:06;27.00;72.10
1123;DHT22;548;48.778;9.252;2022-07-17T06:45:33;26.90;70.40
1123;DHT22;548;48.778;9.252;2022-07-17T06:48:00;26.90;70.30
1123;DHT22;548;48.778;9.252;2022-07-17T06:50:27;27.30;69.30
1123;DHT22;548;48.778;9.252;2022-07-17T06:52:55;27.20;68.60
1123;DHT22;548;48.778;9.252;2022-07-17T06:55:23;27.50;67.60
1123;DHT22;548;48.778;9.252;2022-07-17T06:57:50;27.70;65.50
1123;DHT22;548;48.778;9.252;2022-07-17T07:00:16;27.80;65.40
1123;DHT22;548;48.778;9.252;2022-07-17T07:02:43;28.10;64.60
1123;DHT22;548;48.778;9.252;2022-07-17T07:05:10;28.80;63.30
1123;DHT22;548;48.778;9.252;2022-07-17T07:07:37;28.80;62.40
1123;DHT22;548;48.778;9.252;2022-07-17T07:10:06;28.50;63.20
1123;DHT22;548;48.778;9.252;2022-07-17T07:12:33;28.90;62.20
1123;DHT22;548;48.778;9.252;2022-07-17T07:15:00;29.20;61.00
1123;DHT22;548;48.778;9.252;2022-07-17T07:17:26;29.70;60.00
1123;DHT22;548;48.778;9.252;2022-07-17T07:19:53;29.60;60.00
1123;DHT22;548;48.778;9.252;2022-07-17T07:22:20;29.90;58.10
1123;DHT22;548;48.778;9.252;2022-07-17T07:24:46;30.40;57.30
1123;DHT22;548;48.778;9.252;2022-07-17T07:27:14;30.40;56.40
1123;DHT22;548;48.778;9.252;2022-07-17T07:29:41;30.60;56.50
1123;DHT22;548;48.778;9.252;2022-07-17T07:32:08;31.00;54.60
1123;DHT22;548;48.778;9.252;2022-07-17T07:34:35;31.00;54.10
1123;DHT22;548;48.778;9.252;2022-07-17T07:37:01;31.00;53.60
1123;DHT22;548;48.778;9.252;2022-07-17T07:39:28;31.00;53.00
1123;DHT22;548;48.778;9.252;2022-07-17T07:41:55;31.10;52.90
1123;DHT22;548;48.778;9.252;2022-07-17T07:44:23;31.10;51.90
1123;DHT22;548;48.778;9.252;2022-07-17T07:46:49;31.10;51.90
1123;DHT22;548;48.778;9.252;2022-07-17T07:49:16;31.80;51.50
1123;DHT22;548;48.778;9.252;2022-07-17T07:51:43;31.70;50.60
1123;DHT22;548;48.778;9.252;2022-07-17T07:54:10;32.10;49.90
1123;DHT22;548;48.778;9.252;2022-07-17T07:56:36;31.90;49.80
1123;DHT22;548;48.778;9.252;2022-07-17T07:59:03;32.30;48.80
1123;DHT22;548;48.778;9.252;2022-07-17T08:01:32;32.40;48.00
1123;DHT22;548;48.778;9.252;2022-07-17T08:03:59;32.20;48.40
1123;DHT22;548;48.778;9.252;2022-07-17T08:06:25;32.10;48.50
1123;DHT22;548;48.778;9.252;2022-07-17T08:08:52;32.30;48.20
1123;DHT22;548;48.778;9.252;2022-07-17T08:11:19;31.80;48.80
1123;DHT22;548;48.778;9.252;2022-07-17T08:13:46;31.10;49.70
1123;DHT22;548;48.778;9.252;2022-07-17T08:16:12;31.30;50.30
1123;DHT22;548;48.778;9.252;2022-07-17T08:18:40;30.50;49.80
1123;DHT22;548;48.778;9.252;2022-07-17T08:21:07;30.40;50.40
1123;DHT22;548;48.778;9.252;2022-07-17T08:23:34;30.60;49.80
1123;DHT22;548;48.778;9.252;2022-07-17T08:26:01;30.80;48.50
1123;DHT22;548;48.778;9.252;2022-07-17T08:28:28;31.30;48.00
1123;DHT22;548;48.778;9.252;2022-07-17T08:30:54;31.80;48.00
1123;DHT22;548;48.778;9.252;2022-07-17T08:33:21;32.50;47.40
1123;DHT22;548;48.778;9.252;2022-07-17T08:35:49;33.00;46.50
1123;DHT22;548;48.778;9.252;2022-07-17T08:38:16;33.20;46.20
1123;DHT22;548;48.778;9.252;2022-07-17T08:40:42;32.20;46.50
1123;DHT22;548;48.778;9.252;2022-07-17T08:43:13;32.30;46.60
1123;DHT22;548;48.778;9.252;2022-07-17T08:45:40;33.10;45.80
1123;DHT22;548;48.778;9.252;2022-07-17T08:48:09;33.90;44.60
1123;DHT22;548;48.778;9.252;2022-07-17T08:50:38;34.00;43.60
1123;DHT22;548;48.778;9.252;2022-07-17T08:53:06;34.10;43.30
1123;DHT22;548;48.778;9.252;2022-07-17T08:55:33;34.30;43.30
1123;DHT22;548;48.778;9.252;2022-07-17T08:58:00;34.20;43.90
1123;DHT22;548;48.778;9.252;2022-07-17T09:00:27;34.30;43.10
1123;DHT22;548;48.778;9.252;2022-07-17T09:02:57;34.90;42.20
1123;DHT22;548;48.778;9.252;2022-07-17T09:05:25;35.50;40.80
1123;DHT22;548;48.778;9.252;2022-07-17T09:07:53;36.20;39.30
1123;DHT22;548;48.778;9.252;2022-07-17T09:10:31;35.40;38.20
1123;DHT22;548;48.778;9.252;2022-07-17T09:12:59;34.30;38.90
1123;DHT22;548;48.778;9.252;2022-07-17T09:15:26;34.40;40.20
1123;DHT22;548;48.778;9.252;2022-07-17T09:17:55;34.10;40.40
1123;DHT22;548;48.778;9.252;2022-07-17T09:20:22;33.50;40.40
1123;DHT22;548;48.778;9.252;2022-07-17T09:22:56;33.60;39.30
1123;DHT22;548;48.778;9.252;2022-07-17T09:25:38;33.80;39.10
1123;DHT22;548;48.778;9.252;2022-07-17T09:28:07;34.20;38.50
1123;DHT22;548;48.778;9.252;2022-07-17T09:30:38;33.20;38.70
1123;DHT22;548;48.778;9.252;2022-07-17T09:33:07;33.30;40.10
1123;DHT22;548;48.778;9.252;2022-07-17T09:35:34;33.50;40.50
1123;DHT22;548;48.778;9.252;2022-07-17T09:38:01;33.50;40.70
1123;DHT22;548;48.778;9.252;2022-07-17T09:40:28;33.50;39.40
1123;DHT22;548;48.778;9.252;2022-07-17T09:43:13;32.70;39.90
1123;DHT22;548;48.778;9.252;2022-07-17T09:45:40;32.70;40.70
1123;DHT22;548;48.778;9.252;2022-07-17T09:48:09;33.50;40.50
1123;DHT22;548;48.778;9.252;2022-07-17T09:50:36;34.50;38.90
1123;DHT22;548;48.778;9.252;2022-07-17T09:53:05;35.10;38.10
1123;DHT22;548;48.778;9.252;2022-07-17T09:55:33;35.00;38.50
1123;DHT22;548;48.778;9.252;2022-07-17T09:58:02;34.50;35.80
1123;DHT22;548;48.778;9.252;2022-07-17T10:00:30;34.60;35.60
1123;DHT22;548;48.778;9.252;2022-07-17T10:02:58;34.70;35.00
1123;DHT22;548;48.778;9.252;2022-07-17T10:05:26;35.50;34.30
1123;DHT22;548;48.778;9.252;2022-07-17T10:07:53;35.50;33.90
1123;DHT22;548;48.778;9.252;2022-07-17T10:10:19;35.20;35.30
1123;DHT22;548;48.778;9.252;2022-07-17T10:12:48;35.80;34.90
1123;DHT22;548;48.778;9.252;2022-07-17T10:15:16;36.80;34.60
1123;DHT22;548;48.778;9.252;2022-07-17T10:17:47;37.10;33.90
1123;DHT22;548;48.778;9.252;2022-07-17T10:20:24;38.20;32.90
1123;DHT22;548;48.778;9.252;2022-07-17T10:22:51;38.20;48.20
1123;DHT22;548;48.778;9.252;2022-07-17T10:25:18;37.70;29.30
1123;DHT22;548;48.778;9.252;2022-07-17T10:27:51;36.80;29.60
1123;DHT22;548;48.778;9.252;2022-07-17T10:30:23;35.30;31.20
1123;DHT22;548;48.778;9.252;2022-07-17T10:32:56;35.50;29.80
1123;DHT22;548;48.778;9.252;2022-07-17T10:35:24;35.00;31.40
1123;DHT22;548;48.778;9.252;2022-07-17T10:37:51;34.80;31.40
1123;DHT22;548;48.778;9.252;2022-07-17T10:40:20;34.50;32.10
1123;DHT22;548;48.778;9.252;2022-07-17T10:42:52;34.20;32.10
1123;DHT22;548;48.778;9.252;2022-07-17T10:45:20;34.50;32.70
1123;DHT22;548;48.778;9.252;2022-07-17T10:47:51;34.80;32.00
1123;DHT22;548;48.778;9.252;2022-07-17T10:50:22;34.40;32.60
1123;DHT22;548;48.778;9.252;2022-07-17T10:52:59;35.40;32.00
1123;DHT22;548;48.778;9.252;2022-07-17T10:55:27;35.80;31.00
1123;DHT22;548;48.778;9.252;2022-07-17T10:57:54;35.50;30.80
1123;DHT22;548;48.778;9.252;2022-07-17T11:00:21;35.60;31.40
1123;DHT22;548;48.778;9.252;2022-07-17T11:02:48;35.30;30.60
1123;DHT22;548;48.778;9.252;2022-07-17T11:05:16;35.40;30.90
1123;DHT22;548;48.778;9.252;2022-07-17T11:07:53;35.20;29.90
1123;DHT22;548;48.778;9.252;2022-07-17T11:10:20;34.70;31.50
1123;DHT22;548;48.778;9.252;2022-07-17T11:12:47;34.20;32.50
1123;DHT22;548;48.778;9.252;2022-07-17T11:15:15;34.50;33.00
1123;DHT22;548;48.778;9.252;2022-07-17T11:17:46;35.20;32.70
1123;DHT22;548;48.778;9.252;2022-07-17T11:20:13;36.50;30.90
1123;DHT22;548;48.778;9.252;2022-07-17T11:22:41;36.90;29.80
1123;DHT22;548;48.778;9.252;2022-07-17T11:25:10;37.20;29.70
1123;DHT22;548;48.778;9.252;2022-07-17T11:27:38;37.80;29.90
1123;DHT22;548;48.778;9.252;2022-07-17T11:30:09;38.30;29.00
1123;DHT22;548;48.778;9.252;2022-07-17T11:32:37;37.60;29.30
1123;DHT22;548;48.778;9.252;2022-07-17T11:35:14;37.00;29.90
1123;DHT22;548;48.778;9.252;2022-07-17T11:37:41;36.60;30.10
1123;DHT22;548;48.778;9.252;2022-07-17T11:40:09;37.10;29.90
1123;DHT22;548;48.778;9.252;2022-07-17T11:42:37;36.40;30.10
1123;DHT22;548;48.778;9.252;2022-07-17T11:45:04;36.90;31.20
1123;DHT22;548;48.778;9.252;2022-07-17T11:47:32;37.20;30.10
1123;DHT22;548;48.778;9.252;2022-07-17T11:50:07;35.80;30.90
1123;DHT22;548;48.778;9.252;2022-07-17T11:52:42;36.10;31.40
1123;DHT22;548;48.778;9.252;2022-07-17T11:55:11;35.40;31.10
1123;DHT22;548;48.778;9.252;2022-07-17T11:57:43;35.20;30.70
1123;DHT22;548;48.778;9.252;2022-07-17T12:00:12;35.00;31.20
1123;DHT22;548;48.778;9.252;2022-07-17T12:02:39;34.70;31.20
1123;DHT22;548;48.778;9.252;2022-07-17T12:05:07;34.60;32.10
1123;DHT22;548;48.778;9.252;2022-07-17T12:07:43;35.40;32.20
1123;DHT22;548;48.778;9.252;2022-07-17T12:10:17;36.60;29.90
1123;DHT22;548;48.778;9.252;2022-07-17T12:12:55;36.80;30.00
1123;DHT22;548;48.778;9.252;2022-07-17T12:15:34;37.80;29.80
1123;DHT22;548;48.778;9.252;2022-07-17T12:18:01;38.30;28.90
1123;DHT22;548;48.778;9.252;2022-07-17T12:20:40;38.90;27.80
1123;DHT22;548;48.778;9.252;2022-07-17T12:23:07;37.80;27.70
1123;DHT22;548;48.778;9.252;2022-07-17T12:25:35;37.40;27.90
1123;DHT22;548;48.778;9.252;2022-07-17T12:28:02;37.20;28.80
1123;DHT22;548;48.778;9.252;2022-07-17T12:30:29;37.80;28.60
1123;DHT22;548;48.778;9.252;2022-07-17T12:32:58;37.00;28.90
1123;DHT22;548;48.778;9.252;2022-07-17T12:35:24;36.80;29.10
1123;DHT22;548;48.778;9.252;2022-07-17T12:37:51;37.40;29.10
1123;DHT22;548;48.778;9.252;2022-07-17T12:40:18;36.20;29.30
1123;DHT22;548;48.778;9.252;2022-07-17T12:42:46;37.20;28.80
1123;DHT22;548;48.778;9.252;2022-07-17T12:45:12;37.50;28.40
1123;DHT22;548;48.778;9.252;2022-07-17T12:47:39;37.90;27.70
1123;DHT22;548;48.778;9.252;2022-07-17T12:50:08;38.30;27.10
1123;DHT22;548;48.778;9.252;2022-07-17T12:52:35;39.00;27.30
1123;DHT22;548;48.778;9.252;2022-07-17T12:55:02;39.00;27.10
1123;DHT22;548;48.778;9.252;2022-07-17T12:57:28;38.90;27.50
1123;DHT22;548;48.778;9.252;2022-07-17T12:59:56;39.30;26.80
1123;DHT22;548;48.778;9.252;2022-07-17T13:02:23;39.30;26.90
1123;DHT22;548;48.778;9.252;2022-07-17T13:04:50;38.20;27.60
1123;DHT22;548;48.778;9.252;2022-07-17T13:07:17;38.00;27.90
1123;DHT22;548;48.778;9.252;2022-07-17T13:09:43;38.60;27.60
1123;DHT22;548;48.778;9.252;2022-07-17T13:12:11;38.40;27.70
1123;DHT22;548;48.778;9.252;2022-07-17T13:14:37;37.90;27.90
1123;DHT22;548;48.778;9.252;2022-07-17T13:17:06;37.00;28.10
1123;DHT22;548;48.778;9.252;2022-07-17T13:19:32;36.60;28.40
1123;DHT22;548;48.778;9.252;2022-07-17T13:22:00;36.90;28.80
1123;DHT22;548;48.778;9.252;2022-07-17T13:24:29;37.30;27.60
1123;DHT22;548;48.778;9.252;2022-07-17T13:26:55;37.50;27.00
1123;DHT22;548;48.778;9.252;2022-07-17T13:29:23;37.40;27.10
1123;DHT22;548;48.778;9.252;2022-07-17T13:31:51;36.60;28.20
1123;DHT22;548;48.778;9.252;2022-07-17T13:34:20;35.40;28.80
1123;DHT22;548;48.778;9.252;2022-07-17T13:36:46;34.80;28.60
1123;DHT22;548;48.778;9.252;2022-07-17T13:39:13;34.70;28.90
1123;DHT22;548;48.778;9.252;2022-07-17T13:41:40;35.40;28.10
1123;DHT22;548;48.778;9.252;2022-07-17T13:44:07;35.50;28.30
1123;DHT22;548;48.778;9.252;2022-07-17T13:46:35;35.30;28.60
1123;DHT22;548;48.778;9.252;2022-07-17T13:49:02;35.90;28.50
1123;DHT22;548;48.778;9.252;2022-07-17T13:51:31;35.80;28.20
1123;DHT22;548;48.778;9.252;2022-07-17T13:53:57;36.00;27.60
1123;DHT22;548;48.778;9.252;2022-07-17T13:56:24;36.50;27.00
1123;DHT22;548;48.778;9.252;2022-07-17T13:58:51;35.80;26.80
1123;DHT22;548;48.778;9.252;2022-07-17T14:01:18;35.50;27.10
1123;DHT22;548;48.778;9.252;2022-07-17T14:03:45;35.50;27.60
1123;DHT22;548;48.778;9.252;2022-07-17T14:06:12;35.80;27.30
1123;DHT22;548;48.778;9.252;2022-07-17T14:08:41;36.30;27.20
1123;DHT22;548;48.778;9.252;2022-07-17T14:11:09;36.50;26.30
1123;DHT22;548;48.778;9.252;2022-07-17T14:13:36;36.00;26.60
1123;DHT22;548;48.778;9.252;2022-07-17T14:16:04;35.50;26.80
1123;DHT22;548;48.778;9.252;2022-07-17T14:18:30;35.20;27.10
1123;DHT22;548;48.778;9.252;2022-07-17T14:20:57;34.90;27.60
1123;DHT22;548;48.778;9.252;2022-07-17T14:23:24;34.70;27.80
1123;DHT22;548;48.778;9.252;2022-07-17T14:25:52;34.70;28.30
1123;DHT22;548;48.778;9.252;2022-07-17T14:28:18;34.50;28.20
1123;DHT22;548;48.778;9.252;2022-07-17T14:30:45;34.20;28.10
1123;DHT22;548;48.778;9.252;2022-07-17T14:33:12;34.10;28.50
1123;DHT22;548;48.778;9.252;2022-07-17T14:35:38;33.50;28.00
1123;DHT22;548;48.778;9.252;2022-07-17T14:38:05;33.40;28.00
1123;DHT22;548;48.778;9.252;2022-07-17T14:40:32;33.50;27.60
1123;DHT22;548;48.778;9.252;2022-07-17T14:43:00;34.00;27.20
1123;DHT22;548;48.778;9.252;2022-07-17T14:45:27;34.90;26.40
1123;DHT22;548;48.778;9.252;2022-07-17T14:47:54;35.00;26.80
1123;DHT22;548;48.778;9.252;2022-07-17T14:50:20;34.30;26.90
1123;DHT22;548;48.778;9.252;2022-07-17T14:52:47;33.50;27.40
1123;DHT22;548;48.778;9.252;2022-07-17T14:55:14;33.10;27.90
1123;DHT22;548;48.778;9.252;2022-07-17T14:57:40;32.60;29.20
1123;DHT22;548;48.778;9.252;2022-07-17T15:00:10;32.50;29.40
1123;DHT22;548;48.778;9.252;2022-07-17T15:03:06;32.70;29.40
1123;DHT22;548;48.778;9.252;2022-07-17T15:06:04;32.40;29.40
1123;DHT22;548;48.778;9.252;2022-07-17T15:08:31;32.80;29.30
1123;DHT22;548;48.778;9.252;2022-07-17T15:10:58;32.50;29.00
1123;DHT22;548;48.778;9.252;2022-07-17T15:13:25;32.00;30.00
1123;DHT22;548;48.778;9.252;2022-07-17T15:15:53;31.60;30.40
1123;DHT22;548;48.778;9.252;2022-07-17T15:18:20;31.30;30.60
1123;DHT22;548;48.778;9.252;2022-07-17T15:20:46;31.00;30.80
1123;DHT22;548;48.778;9.252;2022-07-17T15:23:13;30.30;31.60
1123;DHT22;548;48.778;9.252;2022-07-17T15:25:42;30.20;32.30
1123;DHT22;548;48.778;9.252;2022-07-17T15:28:09;30.20;32.20
1123;DHT22;548;48.778;9.252;2022-07-17T15:30:35;30.10;32.40
1123;DHT22;548;48.778;9.252;2022-07-17T15:33:03;30.10;31.90
1123;DHT22;548;48.778;9.252;2022-07-17T15:35:30;30.00;31.80
1123;DHT22;548;48.778;9.252;2022-07-17T15:37:57;29.90;32.20
1123;DHT22;548;48.778;9.252;2022-07-17T15:40:24;29.70;31.80
1123;DHT22;548;48.778;9.252;2022-07-17T15:42:51;29.70;32.10
1123;DHT22;548;48.778;9.252;2022-07-17T15:45:19;29.70;32.30
1123;DHT22;548;48.778;9.252;2022-07-17T15:47:46;29.70;32.60
1123;DHT22;548;48.778;9.252;2022-07-17T15:50:14;29.70;32.50
1123;DHT22;548;48.778;9.252;2022-07-17T15:52:41;29.80;32.90
1123;DHT22;548;48.778;9.252;2022-07-17T15:55:09;29.70;34.00
1123;DHT22;548;48.778;9.252;2022-07-17T15:57:35;29.70;34.10
1123;DHT22;548;48.778;9.252;2022-07-17T16:00:04;29.70;34.50
1123;DHT22;548;48.778;9.252;2022-07-17T16:02:32;29.70;34.50
1123;DHT22;548;48.778;9.252;2022-07-17T16:04:58;29.60;35.10
1123;DHT22;548;48.778;9.252;2022-07-17T16:07:26;29.70;35.40
1123;DHT22;548;48.778;9.252;2022-07-17T16:09:53;29.80;35.40
1123;DHT22;548;48.778;9.252;2022-07-17T16:12:20;29.70;35.60
1123;DHT22;548;48.778;9.252;2022-07-17T16:14:46;29.80;35.20
1123;DHT22;548;48.778;9.252;2022-07-17T16:17:14;29.70;35.40
1123;DHT22;548;48.778;9.252;2022-07-17T16:19:41;29.70;35.40
1123;DHT22;548;48.778;9.252;2022-07-17T16:22:08;29.60;35.60
1123;DHT22;548;48.778;9.252;2022-07-17T16:24:36;29.60;35.60
1123;DHT22;548;48.778;9.252;2022-07-17T16:27:03;29.60;34.90
1123;DHT22;548;48.778;9.252;2022-07-17T16:29:29;29.50;34.20
1123;DHT22;548;48.778;9.252;2022-07-17T16:31:56;29.40;34.60
1123;DHT22;548;48.778;9.252;2022-07-17T16:34:23;29.30;34.20
1123;DHT22;548;48.778;9.252;2022-07-17T16:36:50;29.20;34.40
1123;DHT22;548;48.778;9.252;2022-07-17T16:39:17;29.20;35.10
1123;DHT22;548;48.778;9.252;2022-07-17T16:41:46;29.20;35.60
1123;DHT22;548;48.778;9.252;2022-07-17T16:44:13;29.20;35.00
1123;DHT22;548;48.778;9.252;2022-07-17T16:46:40;29.10;35.20
1123;DHT22;548;48.778;9.252;2022-07-17T16:49:07;29.10;35.40
1123;DHT22;548;48.778;9.252;2022-07-17T16:51:33;29.10;35.90
1123;DHT22;548;48.778;9.252;2022-07-17T16:54:00;29.10;36.10
1123;DHT22;548;48.778;9.252;2022-07-17T16:56:27;29.10;36.20
1123;DHT22;548;48.778;9.252;2022-07-17T16:58:55;29.10;36.40
1123;DHT22;548;48.778;9.252;2022-07-17T17:01:22;29.10;37.00
1123;DHT22;548;48.778;9.252;2022-07-17T17:03:49;29.10;36.60
1123;DHT22;548;48.778;9.252;2022-07-17T17:06:16;29.10;36.30
1123;DHT22;548;48.778;9.252;2022-07-17T17:08:43;29.10;36.00
1123;DHT22;548;48.778;9.252;2022-07-17T17:11:10;29.10;35.80
1123;DHT22;548;48.778;9.252;2022-07-17T17:13:36;29.00;35.90
1123;DHT22;548;48.778;9.252;2022-07-17T17:16:05;29.00;35.90
1123;DHT22;548;48.778;9.252;2022-07-17T17:18:32;28.90;36.00
1123;DHT22;548;48.778;9.252;2022-07-17T17:20:59;28.80;35.90
1123;DHT22;548;48.778;9.252;2022-07-17T17:23:26;28.70;35.60
1123;DHT22;548;48.778;9.252;2022-07-17T17:25:52;28.70;36.00
1123;DHT22;548;48.778;9.252;2022-07-17T17:28:19;28.60;35.90
1123;DHT22;548;48.778;9.252;2022-07-17T17:30:46;28.60;36.50
1123;DHT22;548;48.778;9.252;2022-07-17T17:33:14;28.50;36.10
1123;DHT22;548;48.778;9.252;2022-07-17T17:35:41;28.50;36.40
1123;DHT22;548;48.778;9.252;2022-07-17T17:38:08;28.50;36.30
1123;DHT22;548;48.778;9.252;2022-07-17T17:40:35;28.40;36.40
1123;DHT22;548;48.778;9.252;2022-07-17T17:43:01;28.40;36.10
1123;DHT22;548;48.778;9.252;2022-07-17T17:45:28;28.30;36.50
1123;DHT22;548;48.778;9.252;2022-07-17T17:47:55;28.30;36.30
1123;DHT22;548;48.778;9.252;2022-07-17T17:50:27;28.30;36.40
1123;DHT22;548;48.778;9.252;2022-07-17T17:52:54;28.30;36.40
1123;DHT22;548;48.778;9.252;2022-07-17T17:55:23;28.20;36.40
1123;DHT22;548;48.778;9.252;2022-07-17T17:57:52;28.30;36.50
1123;DHT22;548;48.778;9.252;2022-07-17T18:00:19;28.20;36.50
1123;DHT22;548;48.778;9.252;2022-07-17T18:02:45;28.20;36.40
1123;DHT22;548;48.778;9.252;2022-07-17T18:05:13;28.10;36.90
1123;DHT22;548;48.778;9.252;2022-07-17T18:07:42;28.00;36.90
1123;DHT22;548;48.778;9.252;2022-07-17T18:10:12;28.00;37.00
1123;DHT22;548;48.778;9.252;2022-07-17T18:12:40;28.00;36.80
1123;DHT22;548;48.778;9.252;2022-07-17T18:15:09;27.90;36.90
1123;DHT22;548;48.778;9.252;2022-07-17T18:17:36;27.80;37.30
1123;DHT22;548;48.778;9.252;2022-07-17T18:20:05;27.70;37.50
1123;DHT22;548;48.778;9.252;2022-07-17T18:22:32;27.70;37.30
1123;DHT22;548;48.778;9.252;2022-07-17T18:25:00;27.60;37.40
1123;DHT22;548;48.778;9.252;2022-07-17T18:27:27;27.60;37.80
1123;DHT22;548;48.778;9.252;2022-07-17T18:29:53;27.50;37.60
1123;DHT22;548;48.778;9.252;2022-07-17T18:32:20;27.50;37.70
1123;DHT22;548;48.778;9.252;2022-07-17T18:34:47;27.40;38.10
1123;DHT22;548;48.778;9.252;2022-07-17T18:37:13;27.30;38.20
1123;DHT22;548;48.778;9.252;2022-07-17T18:39:40;27.20;37.90
1123;DHT22;548;48.778;9.252;2022-07-17T18:42:08;27.20;37.90
1123;DHT22;548;48.778;9.252;2022-07-17T18:44:35;27.20;38.20
1123;DHT22;548;48.778;9.252;2022-07-17T18:47:02;27.10;38.10
1123;DHT22;548;48.778;9.252;2022-07-17T18:49:29;27.10;38.10
1123;DHT22;548;48.778;9.252;2022-07-17T18:51:56;26.90;38.10
1123;DHT22;548;48.778;9.252;2022-07-17T18:54:25;26.90;38.40
1123;DHT22;548;48.778;9.252;2022-07-17T18:56:51;26.80;38.60
1123;DHT22;548;48.778;9.252;2022-07-17T18:59:19;26.70;38.80
1123;DHT22;548;48.778;9.252;2022-07-17T19:01:48;26.60;38.90
1123;DHT22;548;48.778;9.252;2022-07-17T19:04:15;26.50;39.20
1123;DHT22;548;48.778;9.252;2022-07-17T19:06:42;26.40;39.00
1123;DHT22;548;48.778;9.252;2022-07-17T19:09:09;26.30;40.10
1123;DHT22;548;48.778;9.252;2022-07-17T19:11:37;26.00;41.10
1123;DHT22;548;48.778;9.252;2022-07-17T19:14:04;25.90;41.40
1123;DHT22;548;48.778;9.252;2022-07-17T19:16:32;25.70;41.80
1123;DHT22;548;48.778;9.252;2022-07-17T19:18:59;25.60;42.10
1123;DHT22;548;48.778;9.252;2022-07-17T19:21:26;25.40;42.40
1123;DHT22;548;48.778;9.252;2022-07-17T19:23:53;25.20;42.80
1123;DHT22;548;48.778;9.252;2022-07-17T19:26:20;25.00;43.30
1123;DHT22;548;48.778;9.252;2022-07-17T19:28:46;24.90;43.50
1123;DHT22;548;48.778;9.252;2022-07-17T19:31:13;24.80;43.90
1123;DHT22;548;48.778;9.252;2022-07-17T19:33:42;24.70;44.10
1123;DHT22;548;48.778;9.252;2022-07-17T19:36:09;24.50;44.40
1123;DHT22;548;48.778;9.252;2022-07-17T19:38:36;24.40;44.80
1123;DHT22;548;48.778;9.252;2022-07-17T19:41:03;24.30;45.00
1123;DHT22;548;48.778;9.252;2022-07-17T19:43:30;24.20;45.50
1123;DHT22;548;48.778;9.252;2022-07-17T19:45:57;24.10;45.50
1123;DHT22;548;48.778;9.252;2022-07-17T19:48:23;23.90;45.60
1123;DHT22;548;48.778;9.252;2022-07-17T19:50:51;23.80;45.50
1123;DHT22;548;48.778;9.252;2022-07-17T19:53:18;23.70;45.70
1123;DHT22;548;48.778;9.252;2022-07-17T19:55:48;23.70;45.30
1123;DHT22;548;48.778;9.252;2022-07-17T19:58:32;23.60;44.70
1123;DHT22;548;48.778;9.252;2022-07-17T20:00:58;23.50;45.60
1123;DHT22;548;48.778;9.252;2022-07-17T20:03:26;23.30;46.30
1123;DHT22;548;48.778;9.252;2022-07-17T20:05:54;23.20;46.50
1123;DHT22;548;48.778;9.252;2022-07-17T20:08:21;23.20;46.50
1123;DHT22;548;48.778;9.252;2022-07-17T20:10:48;23.10;46.60
1123;DHT22;548;48.778;9.252;2022-07-17T20:13:17;23.00;47.00
1123;DHT22;548;48.778;9.252;2022-07-17T20:15:44;22.90;47.90
1123;DHT22;548;48.778;9.252;2022-07-17T20:18:11;22.80;48.00
1123;DHT22;548;48.778;9.252;2022-07-17T20:20:38;22.60;48.30
1123;DHT22;548;48.778;9.252;2022-07-17T20:23:06;22.50;49.20
1123;DHT22;548;48.778;9.252;2022-07-17T20:25:33;22.30;49.40
1123;DHT22;548;48.778;9.252;2022-07-17T20:27:59;22.20;48.00
1123;DHT22;548;48.778;9.252;2022-07-17T20:30:26;22.10;48.90
1123;DHT22;548;48.778;9.252;2022-07-17T20:32:55;21.90;50.00
1123;DHT22;548;48.778;9.252;2022-07-17T20:35:22;21.80;50.60
1123;DHT22;548;48.778;9.252;2022-07-17T20:37:50;21.60;51.20
1123;DHT22;548;48.778;9.252;2022-07-17T20:40:18;21.50;51.30
1123;DHT22;548;48.778;9.252;2022-07-17T20:42:45;21.50;51.40
1123;DHT22;548;48.778;9.252;2022-07-17T20:45:12;21.50;51.30
1123;DHT22;548;48.778;9.252;2022-07-17T20:47:39;21.30;51.70
1123;DHT22;548;48.778;9.252;2022-07-17T20:50:07;21.20;51.60
1123;DHT22;548;48.778;9.252;2022-07-17T20:52:37;21.10;52.30
1123;DHT22;548;48.778;9.252;2022-07-17T20:55:05;21.00;52.60
1123;DHT22;548;48.778;9.252;2022-07-17T20:57:34;20.90;53.60
1123;DHT22;548;48.778;9.252;2022-07-17T21:00:01;20.80;53.80
1123;DHT22;548;48.778;9.252;2022-07-17T21:02:31;20.80;53.90
1123;DHT22;548;48.778;9.252;2022-07-17T21:04:58;20.80;53.80
1123;DHT22;548;48.778;9.252;2022-07-17T21:07:27;20.70;54.30
1123;DHT22;548;48.778;9.252;2022-07-17T21:09:54;20.60;55.30
1123;DHT22;548;48.778;9.252;2022-07-17T21:12:24;20.60;55.10
1123;DHT22;548;48.778;9.252;2022-07-17T21:14:54;20.50;55.60
1123;DHT22;548;48.778;9.252;2022-07-17T21:17:21;20.40;55.80
1123;DHT22;548;48.778;9.252;2022-07-17T21:19:48;20.30;56.80
1123;DHT22;548;48.778;9.252;2022-07-17T21:22:14;20.30;57.00
1123;DHT22;548;48.778;9.252;2022-07-17T21:24:42;20.10;57.30
1123;DHT22;548;48.778;9.252;2022-07-17T21:27:08;20.00;57.90
1123;DHT22;548;48.778;9.252;2022-07-17T21:29:35;20.00;59.10
1123;DHT22;548;48.778;9.252;2022-07-17T21:32:03;20.00;59.10
1123;DHT22;548;48.778;9.252;2022-07-17T21:34:30;20.00;60.00
1123;DHT22;548;48.778;9.252;2022-07-17T21:36:57;20.00;59.90
1123;DHT22;548;48.778;9.252;2022-07-17T21:39:24;20.00;60.10
1123;DHT22;548;48.778;9.252;2022-07-17T21:41:50;20.10;60.60
1123;DHT22;548;48.778;9.252;2022-07-17T21:44:17;20.00;60.70
1123;DHT22;548;48.778;9.252;2022-07-17T21:46:44;19.90;60.90
1123;DHT22;548;48.778;9.252;2022-07-17T21:49:12;19.90;61.00
1123;DHT22;548;48.778;9.252;2022-07-17T21:51:39;19.80;61.30
1123;DHT22;548;48.778;9.252;2022-07-17T21:54:06;19.80;60.80
1123;DHT22;548;48.778;9.252;2022-07-17T21:56:33;19.80;61.50
1123;DHT22;548;48.778;9.252;2022-07-17T21:59:01;19.80;60.80
1123;DHT22;548;48.778;9.252;2022-07-17T22:01:28;19.80;61.80
1123;DHT22;548;48.778;9.252;2022-07-17T22:03:55;19.80;62.10
1123;DHT22;548;48.778;9.252;2022-07-17T22:06:24;19.70;61.80
1123;DHT22;548;48.778;9.252;2022-07-17T22:08:55;19.50;62.90
1123;DHT22;548;48.778;9.252;2022-07-17T22:11:22;19.40;63.80
1123;DHT22;548;48.778;9.252;2022-07-17T22:13:49;19.40;64.70
1123;DHT22;548;48.778;9.252;2022-07-17T22:16:16;19.30;64.70
1123;DHT22;548;48.778;9.252;2022-07-17T22:18:43;19.30;64.90
1123;DHT22;548;48.778;9.252;2022-07-17T22:21:13;19.30;65.00